createdAt,value
2023-01-04T00:01:51.393Z,101985.75
2023-01-04T00:04:17.902Z,101988.41
2023-01-04T00:06:44.361Z,101985.38
2023-01-04T00:09:10.778Z,101988.66
2023-01-04T00:11:37.196Z,101980.63
2023-01-04T00:14:04.019Z,101980.63
2023-01-04T00:16:30.692Z,101971.84
2023-01-04T00:18:57.703Z,101965.06
2023-01-04T00:21:27.280Z,101955.06
2023-01-04T00:23:56.364Z,101950.75
2023-01-04T00:26:25.842Z,101936.63
2023-01-04T00:28:57.558Z,101937.66
2023-01-04T00:31:24.815Z,101927.78
2023-01-04T00:33:55.903Z,101928.59
2023-01-04T00:36:22.989Z,101908.91
2023-01-04T00:39:07.049Z,101925.94
2023-01-04T00:44:26.619Z,101904.72
2023-01-04T00:46:53.529Z,101903.09
2023-01-04T00:49:20.040Z,101896.72
2023-01-04T00:51:46.463Z,101902.06
2023-01-04T00:54:14.654Z,101899.38
2023-01-04T00:56:41.141Z,101899.38
2023-01-04T00:59:07.733Z,101879.06
2023-01-04T01:01:35.167Z,101869.44
2023-01-04T01:04:03.790Z,101857.53
2023-01-04T01:06:32.093Z,101853.81
2023-01-04T01:08:59.334Z,101844.19
2023-01-04T01:11:26.204Z,101852.19
2023-01-04T01:13:53.612Z,101853.34
2023-01-04T01:16:51.877Z,101823.97
2023-01-04T01:19:09.835Z,101829.56
2023-01-04T01:21:37.862Z,101826.44
2023-01-04T01:24:05.439Z,101817.41
2023-01-04T01:26:32.002Z,101816.13
2023-01-04T01:28:59.519Z,101822.84
2023-01-04T01:31:28.529Z,101796.31
2023-01-04T01:33:56.786Z,101799.59
2023-01-04T01:36:25.489Z,101794.84
2023-01-04T01:38:52.218Z,101801.31
2023-01-04T01:41:29.595Z,101800.88
2023-01-04T01:44:03.648Z,101813.78
2023-01-04T01:46:48.977Z,101818.88
2023-01-04T01:49:32.526Z,101801.13
2023-01-04T01:52:05.700Z,101789.22
2023-01-04T01:54:41.487Z,101802.31
2023-01-04T01:57:13.027Z,101781.91
2023-01-04T01:59:42.309Z,101792.25
2023-01-04T02:02:10.477Z,101785.66
2023-01-04T02:04:40.481Z,101780.31
2023-01-04T02:07:09.315Z,101787.28
2023-01-04T02:09:36.957Z,101770.75
2023-01-04T02:12:03.598Z,101790.63
2023-01-04T02:14:30.410Z,101777.63
2023-01-04T02:17:31.221Z,101774.97
2023-01-04T02:19:57.677Z,101776.59
2023-01-04T02:23:01.825Z,101771.38
2023-01-04T02:25:51.275Z,101767.22
2023-01-04T02:28:26.658Z,101774.75
2023-01-04T02:31:11.855Z,101776.94
2023-01-04T02:33:44.550Z,101769.53
2023-01-04T02:36:37.674Z,101762.91
2023-01-04T02:39:16.219Z,101756.53
2023-01-04T02:42:18.024Z,101757.69
2023-01-04T02:44:57.292Z,101749.22
2023-01-04T02:47:47.607Z,101742.00
2023-01-04T02:50:36.283Z,101746.31
2023-01-04T02:53:08.675Z,101734.31
2023-01-04T02:55:51.677Z,101730.59
2023-01-04T02:58:32.801Z,101745.84
2023-01-04T03:01:56.084Z,101724.22
2023-01-04T03:05:15.457Z,101719.22
2023-01-04T03:07:57.160Z,101728.41
2023-01-04T03:10:40.917Z,101732.44
2023-01-04T03:13:09.983Z,101740.25
2023-01-04T03:15:40.941Z,101703.63
2023-01-04T03:18:15.206Z,101740.13
2023-01-04T03:20:44.319Z,101720.44
2023-01-04T03:23:47.582Z,101716.97
2023-01-04T03:26:38.527Z,101699.31
2023-01-04T03:29:35.130Z,101720.00
2023-01-04T03:32:29.006Z,101709.03
2023-01-04T03:35:14.798Z,101700.81
2023-01-04T03:38:12.940Z,101696.84
2023-01-04T03:41:00.391Z,101711.13
2023-01-04T03:43:59.918Z,101698.91
2023-01-04T03:47:01.750Z,101694.72
2023-01-04T03:49:31.140Z,101687.22
2023-01-04T03:52:00.583Z,101686.28
2023-01-04T03:54:32.551Z,101690.91
2023-01-04T03:57:00.241Z,101685.34
2023-01-04T03:59:26.785Z,101696.59
2023-01-04T04:01:53.960Z,101707.31
2023-01-04T04:04:39.092Z,101663.28
2023-01-04T04:07:24.647Z,101676.63
2023-01-04T04:09:51.164Z,101641.25
2023-01-04T04:12:17.557Z,101660.00
2023-01-04T04:14:44.084Z,101651.81
2023-01-04T04:17:10.532Z,101654.31
2023-01-04T04:19:36.924Z,101649.53
2023-01-04T04:22:03.346Z,101651.16
2023-01-04T04:24:29.839Z,101653.44
2023-01-04T04:26:56.361Z,101653.53
2023-01-04T04:29:24.260Z,101632.91
2023-01-04T04:31:51.182Z,101647.69
2023-01-04T04:34:17.790Z,101642.88
2023-01-04T04:36:44.451Z,101614.47
2023-01-04T04:39:12.008Z,101631.94
2023-01-04T04:41:39.481Z,101625.84
2023-01-04T04:44:08.440Z,101626.91
2023-01-04T04:46:35.668Z,101612.44
2023-01-04T04:49:02.733Z,101600.69
2023-01-04T04:51:29.353Z,101622.34
2023-01-04T04:53:55.905Z,101614.31
2023-01-04T04:56:22.441Z,101607.66
2023-01-04T04:58:49.523Z,101608.72
2023-01-04T05:01:16.618Z,101607.66
2023-01-04T05:03:43.322Z,101608.94
2023-01-04T05:06:10.027Z,101606.53
2023-01-04T05:08:36.478Z,101618.28
2023-01-04T05:11:10.231Z,101603.28
2023-01-04T05:13:37.289Z,101612.63
2023-01-04T05:16:05.385Z,101615.63
2023-01-04T05:18:32.319Z,101619.34
2023-01-04T05:20:59.242Z,101609.69
2023-01-04T05:23:26.844Z,101597.13
2023-01-04T05:25:56.830Z,101600.03
2023-01-04T05:28:23.592Z,101602.69
2023-01-04T05:30:51.019Z,101600.03
2023-01-04T05:33:24.174Z,101592.00
2023-01-04T05:35:51.939Z,101588.53
2023-01-04T05:38:19.033Z,101574.06
2023-01-04T05:40:46.392Z,101592.56
2023-01-04T05:43:13.861Z,101562.88
2023-01-04T05:45:43.769Z,101583.47
2023-01-04T05:48:10.364Z,101567.41
2023-01-04T05:50:36.888Z,101571.13
2023-01-04T05:53:04.198Z,101558.31
2023-01-04T05:55:30.603Z,101536.91
2023-01-04T05:57:57.163Z,101539.56
2023-01-04T06:00:23.696Z,101545.25
2023-01-04T06:02:52.398Z,101543.13
2023-01-04T06:05:19.099Z,101543.94
2023-01-04T06:07:45.525Z,101548.78
2023-01-04T06:10:13.560Z,101546.38
2023-01-04T06:12:40.774Z,101558.22
2023-01-04T06:15:08.981Z,101563.00
2023-01-04T06:17:35.880Z,101540.28
2023-01-04T06:20:03.585Z,101537.59
2023-01-04T06:22:30.101Z,101539.22
2023-01-04T06:24:56.506Z,101556.66
2023-01-04T06:27:22.941Z,101572.81
2023-01-04T06:29:49.348Z,101569.88
2023-01-04T06:32:15.879Z,101585.94
2023-01-04T06:34:42.292Z,101572.88
2023-01-04T06:37:09.828Z,101567.53
2023-01-04T06:39:37.312Z,101564.59
2023-01-04T06:42:06.894Z,101570.25
2023-01-04T06:44:34.019Z,101559.31
2023-01-04T06:47:00.734Z,101543.28
2023-01-04T06:49:27.221Z,101537.59
2023-01-04T06:51:53.708Z,101528.75
2023-01-04T06:54:20.255Z,101540.28
2023-01-04T06:56:46.738Z,101531.19
2023-01-04T06:59:13.164Z,101530.94
2023-01-04T07:01:39.699Z,101516.97
2023-01-04T07:04:06.368Z,101530.63
2023-01-04T07:06:32.827Z,101523.94
2023-01-04T07:08:59.204Z,101520.22
2023-01-04T07:11:25.656Z,101510.88
2023-01-04T07:13:52.921Z,101527.19
2023-01-04T07:16:20.592Z,101513.00
2023-01-04T07:18:47.093Z,101517.03
2023-01-04T07:21:13.605Z,101503.63
2023-01-04T07:23:40.136Z,101507.13
2023-01-04T07:26:07.447Z,101504.44
2023-01-04T07:28:52.641Z,101489.97
2023-01-04T07:31:19.216Z,101502.59
2023-01-04T07:33:49.320Z,101489.19
2023-01-04T07:36:15.872Z,101491.03
2023-01-04T07:38:43.576Z,101503.63
2023-01-04T07:41:10.087Z,101504.13
2023-01-04T07:43:36.547Z,101501.44
2023-01-04T07:46:03.028Z,101497.16
2023-01-04T07:48:29.761Z,101501.44
2023-01-04T07:50:56.439Z,101491.78
2023-01-04T07:53:22.951Z,101481.91
2023-01-04T07:55:55.312Z,101482.13
2023-01-04T07:58:21.765Z,101493.69
2023-01-04T08:00:48.227Z,101476.78
2023-01-04T08:03:14.734Z,101482.69
2023-01-04T08:05:42.387Z,101482.47
2023-01-04T08:08:08.871Z,101487.81
2023-01-04T08:10:36.226Z,101485.69
2023-01-04T08:13:02.823Z,101483.81
2023-01-04T08:15:29.407Z,101491.88
2023-01-04T08:17:56.992Z,101505.81
2023-01-04T08:20:23.520Z,101492.44
2023-01-04T08:22:49.950Z,101489.97
2023-01-04T08:25:16.475Z,101502.59
2023-01-04T08:27:43.104Z,101491.88
2023-01-04T08:30:10.038Z,101481.16
2023-01-04T08:32:36.465Z,101490.81
2023-01-04T08:35:03.129Z,101489.97
2023-01-04T08:37:31.873Z,101483.56
2023-01-04T08:39:58.419Z,101484.94
2023-01-04T08:42:31.265Z,101480.38
2023-01-04T08:45:01.052Z,101488.16
2023-01-04T08:47:29.658Z,101493.28
2023-01-04T08:49:57.611Z,101495.66
2023-01-04T08:52:24.540Z,101511.47
2023-01-04T08:54:51.038Z,101524.63
2023-01-04T08:57:18.275Z,101511.00
2023-01-04T08:59:45.114Z,101505.38
2023-01-04T09:02:24.201Z,101494.66
2023-01-04T09:04:51.440Z,101508.88
2023-01-04T09:07:18.379Z,101514.22
2023-01-04T09:09:44.822Z,101502.47
2023-01-04T09:12:12.091Z,101509.22
2023-01-04T09:14:39.159Z,101520.50
2023-01-04T09:17:05.714Z,101515.13
2023-01-04T09:19:32.595Z,101524.78
2023-01-04T09:21:59.139Z,101522.91
2023-01-04T09:24:26.032Z,101522.66
2023-01-04T09:26:52.502Z,101519.97
2023-01-04T09:29:19.178Z,101510.06
2023-01-04T09:31:45.861Z,101515.72
2023-01-04T09:34:15.433Z,101520.84
2023-01-04T09:36:44.197Z,101522.22
2023-01-04T09:39:18.429Z,101528.63
2023-01-04T09:41:58.946Z,101529.19
2023-01-04T09:45:21.839Z,101526.03
2023-01-04T09:47:30.124Z,101529.50
2023-01-04T09:50:01.749Z,101531.13
2023-01-04T09:52:42.210Z,101535.66
2023-01-04T09:55:37.219Z,101531.91
2023-01-04T09:58:29.919Z,101536.22
2023-01-04T10:01:01.736Z,101527.69
2023-01-04T10:03:35.320Z,101525.56
2023-01-04T10:06:02.693Z,101535.22
2023-01-04T10:08:31.371Z,101541.38
2023-01-04T10:11:16.882Z,101536.84
2023-01-04T10:13:55.917Z,101547.88
2023-01-04T10:22:31.237Z,101530.94
2023-01-04T10:25:06.227Z,101530.72
2023-01-04T10:28:17.609Z,101525.34
2023-01-04T10:30:53.123Z,101535.03
2023-01-04T10:33:32.858Z,101534.19
2023-01-04T10:35:59.832Z,101532.34
2023-01-04T10:38:33.126Z,101534.19
2023-01-04T10:41:04.608Z,101528.03
2023-01-04T10:44:10.647Z,101531.50
2023-01-04T10:46:49.303Z,101518.94
2023-01-04T10:49:40.032Z,101523.22
2023-01-04T10:52:17.252Z,101513.31
2023-01-04T10:54:49.014Z,101515.75
2023-01-04T10:57:34.069Z,101517.34
2023-01-04T11:00:02.358Z,101521.41
2023-01-04T11:03:04.783Z,101506.66
2023-01-04T11:05:50.259Z,101509.34
2023-01-04T11:08:23.934Z,101502.94
2023-01-04T11:10:56.738Z,101489.25
2023-01-04T11:13:24.533Z,101494.63
2023-01-04T11:15:52.423Z,101478.28
2023-01-04T11:18:19.341Z,101484.44
2023-01-04T11:20:45.969Z,101482.81
2023-01-04T11:23:20.585Z,101471.28
2023-01-04T11:25:56.199Z,101466.72
2023-01-04T11:28:29.685Z,101461.34
2023-01-04T11:31:03.975Z,101469.16
2023-01-04T11:33:30.520Z,101453.06
2023-01-04T11:35:59.402Z,101462.97
2023-01-04T11:38:28.623Z,101475.59
2023-01-04T11:41:05.868Z,101454.69
2023-01-04T11:43:34.709Z,101459.00
2023-01-04T11:46:07.751Z,101454.16
2023-01-04T11:48:37.051Z,101454.47
2023-01-04T11:51:05.336Z,101445.38
2023-01-04T11:53:35.003Z,101444.88
2023-01-04T11:56:13.730Z,101459.66
2023-01-04T11:58:41.599Z,101458.34
2023-01-04T12:01:24.326Z,101463.72
2023-01-04T12:03:51.320Z,101456.44
2023-01-04T12:06:22.349Z,101466.13
2023-01-04T12:08:48.966Z,101464.25
2023-01-04T12:11:28.222Z,101430.19
2023-01-04T12:13:54.700Z,101451.38
2023-01-04T12:16:50.370Z,101454.06
2023-01-04T12:19:19.027Z,101462.94
2023-01-04T12:21:48.586Z,101445.50
2023-01-04T12:24:24.191Z,101440.94
2023-01-04T12:26:52.373Z,101446.59
2023-01-04T12:29:24.469Z,101442.59
2023-01-04T12:32:15.247Z,101452.81
2023-01-04T12:34:47.744Z,101444.50
2023-01-04T12:37:45.962Z,101428.13
2023-01-04T12:40:48.005Z,101426.81
2023-01-04T12:43:27.597Z,101438.59
2023-01-04T12:46:46.873Z,101433.78
2023-01-04T12:49:28.543Z,101430.03
2023-01-04T12:52:30.644Z,101431.66
2023-01-04T12:54:57.947Z,101434.34
2023-01-04T12:57:39.606Z,101431.41
2023-01-04T13:00:12.560Z,101442.69
2023-01-04T13:03:08.802Z,101442.41
2023-01-04T13:05:56.933Z,101439.50
2023-01-04T13:08:24.448Z,101448.34
2023-01-04T13:10:53.827Z,101442.44
2023-01-04T13:13:26.249Z,101459.34
2023-01-04T13:16:14.103Z,101446.75
2023-01-04T13:18:42.291Z,101459.91
2023-01-04T13:21:20.461Z,101448.66
2023-01-04T13:23:51.503Z,101444.09
2023-01-04T13:26:39.566Z,101452.13
2023-01-04T13:29:15.585Z,101449.44
2023-01-04T13:31:49.573Z,101444.63
2023-01-04T13:34:18.341Z,101438.44
2023-01-04T13:36:53.401Z,101449.44
2023-01-04T13:39:20.500Z,101449.16
2023-01-04T13:41:47.047Z,101452.13
2023-01-04T13:47:46.865Z,101430.88
2023-01-04T13:50:35.329Z,101434.41
2023-01-04T13:53:08.152Z,101437.38
2023-01-04T13:55:37.378Z,101428.75
2023-01-04T13:58:06.914Z,101429.31
2023-01-04T14:00:50.049Z,101420.16
2023-01-04T14:03:32.848Z,101431.72
2023-01-04T14:06:12.681Z,101433.56
2023-01-04T14:08:51.942Z,101422.28
2023-01-04T14:11:47.455Z,101437.88
2023-01-04T14:14:52.421Z,101432.75
2023-01-04T14:17:56.304Z,101416.34
2023-01-04T14:20:25.495Z,101426.28
2023-01-04T14:22:53.957Z,101424.38
2023-01-04T14:25:36.885Z,101418.72
2023-01-04T14:28:18.888Z,101437.22
2023-01-04T14:30:52.371Z,101434.53
2023-01-04T14:33:26.259Z,101422.44
2023-01-04T14:36:07.909Z,101423.53
2023-01-04T14:39:00.420Z,101435.88
2023-01-04T14:41:50.105Z,101429.94
2023-01-04T14:44:20.828Z,101423.22
2023-01-04T14:46:52.526Z,101430.47
2023-01-04T14:49:21.785Z,101438.50
2023-01-04T14:51:53.943Z,101424.03
2023-01-04T14:54:24.929Z,101424.31
2023-01-04T14:56:53.845Z,101414.88
2023-01-04T14:59:23.516Z,101421.84
2023-01-04T15:01:54.792Z,101410.56
2023-01-04T15:04:21.984Z,101418.66
2023-01-04T15:06:51.289Z,101425.03
2023-01-04T15:09:17.826Z,101426.66
2023-01-04T15:11:44.392Z,101445.44
2023-01-04T15:14:10.913Z,101447.06
2023-01-04T15:16:37.660Z,101447.06
2023-01-04T15:19:04.265Z,101446.78
2023-01-04T15:21:34.016Z,101454.03
2023-01-04T15:24:03.945Z,101443.81
2023-01-04T15:26:30.983Z,101449.41
2023-01-04T15:28:57.552Z,101444.59
2023-01-04T15:31:31.203Z,101456.69
2023-01-04T15:34:01.792Z,101446.22
2023-01-04T15:36:28.319Z,101455.34
2023-01-04T15:38:55.422Z,101448.34
2023-01-04T15:41:40.744Z,101428.50
2023-01-04T15:44:11.397Z,101430.88
2023-01-04T15:46:38.122Z,101434.88
2023-01-04T15:49:04.841Z,101425.50
2023-01-04T15:51:31.287Z,101434.09
2023-01-04T15:53:57.957Z,101423.91
2023-01-04T15:56:25.531Z,101428.97
2023-01-04T15:58:53.427Z,101415.53
2023-01-04T16:01:20.177Z,101433.25
2023-01-04T16:03:51.367Z,101420.88
2023-01-04T16:06:20.717Z,101417.94
2023-01-04T16:08:48.862Z,101420.06
2023-01-04T16:11:23.497Z,101423.56
2023-01-04T16:13:52.145Z,101416.81
2023-01-04T16:16:20.726Z,101424.34
2023-01-04T16:18:49.149Z,101426.19
2023-01-04T16:21:18.184Z,101429.94
2023-01-04T16:23:50.011Z,101446.03
2023-01-04T16:26:16.493Z,101448.44
2023-01-04T16:28:43.039Z,101460.78
2023-01-04T16:31:10.047Z,101455.41
2023-01-04T16:33:36.525Z,101448.94
2023-01-04T16:36:07.825Z,101464.47
2023-01-04T16:38:44.679Z,101464.19
2023-01-04T16:41:14.486Z,101474.63
2023-01-04T16:43:47.979Z,101464.72
2023-01-04T16:46:19.389Z,101454.28
2023-01-04T16:48:48.815Z,101458.31
2023-01-04T16:51:15.935Z,101450.00
2023-01-04T16:53:42.467Z,101446.00
2023-01-04T16:56:11.647Z,101456.75
2023-01-04T16:58:39.015Z,101451.13
2023-01-04T17:01:16.976Z,101451.66
2023-01-04T17:03:44.942Z,101448.69
2023-01-04T17:06:14.196Z,101466.34
2023-01-04T17:08:41.502Z,101461.50
2023-01-04T17:11:51.193Z,101471.66
2023-01-04T17:13:57.754Z,101470.31
2023-01-04T17:16:26.317Z,101463.06
2023-01-04T17:18:56.399Z,101457.69
2023-01-04T17:21:33.764Z,101455.78
2023-01-04T17:24:01.427Z,101457.66
2023-01-04T17:26:31.651Z,101476.66
2023-01-04T17:29:00.200Z,101480.44
2023-01-04T17:31:35.202Z,101485.75
2023-01-04T17:34:03.085Z,101474.94
2023-01-04T17:36:29.961Z,101480.56
2023-01-04T17:38:59.479Z,101480.66
2023-01-04T17:41:27.269Z,101483.31
2023-01-04T17:44:00.406Z,101487.38
2023-01-04T17:46:29.335Z,101501.56
2023-01-04T17:49:20.991Z,101501.31
2023-01-04T17:51:42.247Z,101506.94
2023-01-04T17:54:11.167Z,101507.19
2023-01-04T17:56:37.847Z,101518.72
2023-01-04T17:59:06.809Z,101530.19
2023-01-04T18:01:34.914Z,101527.22
2023-01-04T18:04:02.422Z,101519.97
2023-01-04T18:06:34.479Z,101517.81
2023-01-04T18:09:02.350Z,101516.75
2023-01-04T18:11:28.959Z,101531.44
2023-01-04T18:13:55.517Z,101528.19
2023-01-04T18:16:27.472Z,101527.63
2023-01-04T18:18:55.313Z,101517.25
2023-01-04T18:21:28.480Z,101533.50
2023-01-04T18:29:32.891Z,101521.34
2023-01-04T18:31:59.449Z,101526.69
2023-01-04T18:34:28.801Z,101531.22
2023-01-04T18:36:55.303Z,101529.63
2023-01-04T18:39:21.880Z,101532.94
2023-01-04T18:41:48.607Z,101544.78
2023-01-04T18:47:02.561Z,101528.69
2023-01-04T18:49:29.288Z,101531.13
2023-01-04T18:51:55.849Z,101541.53
2023-01-04T18:54:22.312Z,101535.44
2023-01-04T18:56:49.031Z,101540.00
2023-01-04T18:59:18.860Z,101550.38
2023-01-04T19:01:45.788Z,101542.31
2023-01-04T19:04:12.868Z,101544.44
2023-01-04T19:06:41.035Z,101533.41
2023-01-04T19:09:08.229Z,101534.47
2023-01-04T19:11:35.868Z,101537.72
2023-01-04T19:14:03.428Z,101547.09
2023-01-04T19:16:31.373Z,101537.72
2023-01-04T19:18:59.410Z,101548.22
2023-01-04T19:21:26.080Z,101543.91
2023-01-04T19:23:52.720Z,101542.03
2023-01-04T19:26:19.826Z,101531.56
2023-01-04T19:28:46.463Z,101524.63
2023-01-04T19:31:14.102Z,101544.22
2023-01-04T19:33:40.706Z,101549.81
2023-01-04T19:36:09.562Z,101555.50
2023-01-04T19:38:37.226Z,101548.59
2023-01-04T19:41:04.888Z,101547.22
2023-01-04T19:43:31.819Z,101550.13
2023-01-04T19:45:58.369Z,101546.97
2023-01-04T19:48:25.109Z,101538.19
2023-01-04T19:51:08.614Z,101548.91
2023-01-04T19:53:35.484Z,101573.56
2023-01-04T19:56:02.316Z,101571.47
2023-01-04T19:58:28.811Z,101574.66
2023-01-04T20:00:55.702Z,101572.22
2023-01-04T20:03:23.549Z,101574.91
2023-01-04T20:05:50.183Z,101571.66
2023-01-04T20:08:16.730Z,101582.44
2023-01-04T20:10:43.418Z,101581.69
2023-01-04T20:13:09.965Z,101576.81
2023-01-04T20:15:40.088Z,101585.13
2023-01-04T20:18:13.317Z,101570.91
2023-01-04T20:20:47.248Z,101583.75
2023-01-04T20:23:14.669Z,101590.19
2023-01-04T20:25:43.699Z,101572.47
2023-01-04T20:28:10.366Z,101586.69
2023-01-04T20:30:37.643Z,101604.66
2023-01-04T20:33:04.537Z,101584.31
2023-01-04T20:35:31.382Z,101581.88
2023-01-04T20:37:57.863Z,101592.34
2023-01-04T20:40:28.548Z,101601.97
2023-01-04T20:43:13.950Z,101604.66
2023-01-04T20:45:45.854Z,101589.44
2023-01-04T20:48:12.818Z,101597.47
2023-01-04T20:50:40.127Z,101604.94
2023-01-04T20:53:06.696Z,101615.41
2023-01-04T20:55:40.056Z,101608.38
2023-01-04T20:58:12.161Z,101601.84
2023-01-04T21:00:39.532Z,101603.19
2023-01-04T21:03:08.274Z,101613.59
2023-01-04T21:05:40.226Z,101601.47
2023-01-04T21:08:07.439Z,101618.59
2023-01-04T21:10:35.688Z,101609.50
2023-01-04T21:13:03.696Z,101599.63
2023-01-04T21:15:30.323Z,101631.22
2023-01-04T21:17:56.875Z,101615.63
2023-01-04T21:20:24.585Z,101616.44
2023-01-04T21:22:51.133Z,101620.50
2023-01-04T21:25:17.763Z,101610.56
2023-01-04T21:27:44.306Z,101626.47
2023-01-04T21:30:11.463Z,101634.50
2023-01-04T21:32:37.982Z,101648.81
2023-01-04T21:35:05.005Z,101631.69
2023-01-04T21:37:31.524Z,101651.28
2023-01-04T21:39:58.033Z,101651.16
2023-01-04T21:42:24.636Z,101655.81
2023-01-04T21:44:51.052Z,101648.31
2023-01-04T21:47:17.505Z,101646.13
2023-01-04T21:49:44.256Z,101650.22
2023-01-04T21:52:11.471Z,101665.81
2023-01-04T21:54:38.964Z,101663.63
2023-01-04T21:57:08.013Z,101658.97
2023-01-04T21:59:35.357Z,101648.66
2023-01-04T22:02:01.919Z,101640.38
2023-01-04T22:04:28.623Z,101667.19
2023-01-04T22:06:55.032Z,101653.72
2023-01-04T22:09:21.562Z,101668.41
2023-01-04T22:11:50.086Z,101668.81
2023-01-04T22:14:17.578Z,101662.34
2023-01-04T22:16:44.198Z,101663.06
2023-01-04T22:19:14.953Z,101669.00
2023-01-04T22:21:42.540Z,101663.00
2023-01-04T22:24:13.234Z,101671.84
2023-01-04T22:26:41.020Z,101679.88
2023-01-04T22:29:07.842Z,101660.25
2023-01-04T22:31:34.551Z,101673.41
2023-01-04T22:34:01.161Z,101684.34
2023-01-04T22:36:27.659Z,101683.38
2023-01-04T22:38:56.112Z,101686.53
2023-01-04T22:41:25.484Z,101677.94
2023-01-04T22:43:56.899Z,101695.06
2023-01-04T22:46:24.700Z,101686.78
2023-01-04T22:48:51.418Z,101695.31
2023-01-04T22:51:19.187Z,101701.97
2023-01-04T22:53:46.292Z,101701.41
2023-01-04T22:56:21.056Z,101696.28
2023-01-04T22:58:53.866Z,101704.88
2023-01-04T23:01:23.502Z,101700.41
2023-01-04T23:03:51.733Z,101702.88
2023-01-04T23:06:18.527Z,101706.03
2023-01-04T23:08:45.071Z,101710.06
2023-01-04T23:11:14.329Z,101702.34
2023-01-04T23:13:41.327Z,101714.88
2023-01-04T23:16:09.941Z,101727.47
2023-01-04T23:18:37.279Z,101735.16
2023-01-04T23:21:04.768Z,101731.34
2023-01-04T23:23:31.844Z,101717.97
2023-01-04T23:26:07.721Z,101724.38
2023-01-04T23:28:37.094Z,101731.34
2023-01-04T23:31:06.535Z,101726.25
2023-01-04T23:33:36.458Z,101721.25
2023-01-04T23:36:15.795Z,101729.22
2023-01-04T23:38:43.402Z,101735.88
2023-01-04T23:41:11.046Z,101738.78
2023-01-04T23:43:38.514Z,101736.00
2023-01-04T23:48:36.535Z,101742.66
2023-01-04T23:51:03.590Z,101740.94
2023-01-04T23:53:30.182Z,101739.81
2023-01-04T23:55:58.624Z,101750.53
2023-01-04T23:58:27.450Z,101752.63
